createdAt,value
2019-02-28T00:01:56.872Z,16.37
2019-02-28T00:04:32.007Z,13.50
2019-02-28T00:06:58.637Z,19.55
2019-02-28T00:09:28.651Z,17.05
2019-02-28T00:11:58.650Z,15.40
2019-02-28T00:14:28.703Z,16.20
2019-02-28T00:16:58.812Z,17.23
2019-02-28T00:19:28.823Z,15.20
2019-02-28T00:21:58.931Z,13.83
2019-02-28T00:24:30.029Z,17.98
2019-02-28T00:27:00.987Z,16.60
2019-02-28T00:29:33.456Z,18.07
2019-02-28T00:32:02.803Z,14.78
2019-02-28T00:34:32.837Z,17.67
2019-02-28T00:37:02.842Z,19.50
2019-02-28T00:39:34.808Z,17.70
2019-02-28T00:42:04.582Z,18.12
2019-02-28T00:44:34.607Z,17.90
2019-02-28T00:47:04.639Z,20.65
2019-02-28T00:49:34.639Z,18.48
2019-02-28T00:52:04.654Z,23.83
2019-02-28T00:54:34.646Z,19.20
2019-02-28T00:57:04.670Z,17.10
2019-02-28T00:59:34.663Z,18.82
2019-02-28T01:02:04.755Z,21.65
2019-02-28T01:04:34.754Z,20.48
2019-02-28T01:07:04.763Z,22.32
2019-02-28T01:09:34.746Z,21.40
2019-02-28T01:12:04.759Z,20.12
2019-02-28T01:14:35.823Z,22.37
2019-02-28T01:17:06.463Z,21.57
2019-02-28T01:19:36.487Z,23.00
2019-02-28T01:22:06.504Z,22.37
2019-02-28T01:24:36.485Z,21.87
2019-02-28T01:27:06.561Z,20.75
2019-02-28T01:29:36.553Z,26.07
2019-02-28T01:32:06.695Z,21.55
2019-02-28T01:34:36.689Z,20.25
2019-02-28T01:37:06.806Z,20.27
2019-02-28T01:39:36.789Z,22.48
2019-02-28T01:42:06.812Z,19.63
2019-02-28T01:44:36.914Z,23.07
2019-02-28T01:47:06.932Z,23.45
2019-02-28T01:49:36.934Z,20.65
2019-02-28T01:52:09.861Z,22.20
2019-02-28T01:54:38.761Z,25.50
2019-02-28T01:57:09.994Z,21.20
2019-02-28T01:59:40.253Z,19.55
2019-02-28T02:02:10.309Z,22.32
2019-02-28T02:04:40.282Z,26.23
2019-02-28T02:07:10.306Z,25.10
2019-02-28T02:09:42.657Z,20.55
2019-02-28T02:12:12.082Z,22.42
2019-02-28T02:14:44.710Z,22.35
2019-02-28T02:17:13.791Z,23.22
2019-02-28T02:19:43.842Z,23.30
2019-02-28T02:22:13.894Z,20.43
2019-02-28T02:24:43.882Z,23.35
2019-02-28T02:27:16.301Z,23.95
2019-02-28T02:29:45.615Z,24.17
2019-02-28T02:32:15.642Z,24.40
2019-02-28T02:34:46.221Z,24.80
2019-02-28T02:37:16.391Z,26.33
2019-02-28T02:39:50.073Z,23.92
2019-02-28T02:42:18.175Z,23.67
2019-02-28T02:44:48.281Z,21.52
2019-02-28T02:47:18.458Z,20.85
2019-02-28T02:49:56.178Z,23.87
2019-02-28T02:52:25.563Z,27.58
2019-02-28T02:54:52.945Z,27.27
2019-02-28T02:57:23.350Z,25.62
2019-02-28T02:59:53.449Z,27.02
2019-02-28T03:02:23.521Z,27.87
2019-02-28T03:04:57.914Z,23.65
2019-02-28T03:07:25.373Z,24.37
2019-02-28T03:09:55.387Z,27.50
2019-02-28T03:12:25.423Z,22.27
2019-02-28T03:14:55.568Z,24.65
2019-02-28T03:17:25.631Z,26.55
2019-02-28T03:19:55.700Z,27.58
2019-02-28T03:22:29.902Z,23.57
2019-02-28T03:24:58.624Z,19.95
2019-02-28T03:27:28.740Z,25.43
2019-02-28T03:29:58.862Z,24.52
2019-02-28T03:32:39.745Z,24.18
2019-02-28T03:35:01.816Z,23.92
2019-02-28T03:37:34.555Z,26.27
2019-02-28T03:40:06.428Z,25.77
2019-02-28T03:42:36.768Z,24.30
2019-02-28T03:45:08.056Z,26.62
2019-02-28T03:47:38.226Z,22.37
2019-02-28T03:50:10.688Z,21.83
2019-02-28T03:52:43.933Z,28.60
2019-02-28T03:55:12.771Z,24.30
2019-02-28T03:57:44.532Z,23.05
2019-02-28T04:00:16.326Z,29.75
2019-02-28T04:02:46.392Z,24.55
2019-02-28T04:05:16.425Z,28.92
2019-02-28T04:07:52.889Z,28.53
2019-02-28T04:10:21.760Z,28.17
2019-02-28T04:12:50.116Z,32.08
2019-02-28T04:15:20.423Z,28.70
2019-02-28T04:17:50.661Z,32.28
2019-02-28T04:20:20.844Z,32.70
2019-02-28T04:22:50.967Z,27.32
2019-02-28T04:25:24.107Z,29.18
2019-02-28T04:27:52.904Z,26.33
2019-02-28T04:30:22.991Z,28.52
2019-02-28T04:32:53.047Z,30.57
2019-02-28T04:35:25.258Z,27.77
2019-02-28T04:37:54.935Z,26.97
2019-02-28T04:40:26.979Z,28.17
2019-02-28T04:42:56.722Z,30.40
2019-02-28T04:45:27.069Z,32.63
2019-02-28T04:47:58.370Z,26.68
2019-02-28T04:50:32.136Z,24.77
2019-02-28T04:53:01.168Z,28.57
2019-02-28T04:55:31.244Z,27.22
2019-02-28T04:58:02.674Z,24.07
2019-02-28T05:00:32.723Z,25.17
2019-02-28T05:03:02.830Z,27.20
2019-02-28T05:05:32.848Z,27.45
2019-02-28T05:08:05.757Z,29.35
2019-02-28T05:10:34.726Z,25.60
2019-02-28T05:13:04.766Z,25.85
2019-02-28T05:15:38.496Z,27.22
2019-02-28T05:18:06.527Z,32.33
2019-02-28T05:20:36.599Z,29.98
2019-02-28T05:23:06.626Z,27.02
2019-02-28T05:25:36.671Z,24.12
2019-02-28T05:28:07.544Z,28.10
2019-02-28T05:30:37.720Z,26.12
2019-02-28T05:33:07.779Z,26.10
2019-02-28T05:35:37.793Z,27.07
2019-02-28T05:38:07.853Z,29.50
2019-02-28T05:40:41.402Z,29.20
2019-02-28T05:43:09.976Z,29.65
2019-02-28T05:45:40.019Z,32.45
2019-02-28T05:48:10.172Z,29.87
2019-02-28T05:50:40.219Z,28.80
2019-02-28T05:53:10.307Z,33.33
2019-02-28T05:55:40.408Z,27.13
2019-02-28T05:58:10.486Z,27.58
2019-02-28T06:00:40.618Z,26.63
2019-02-28T06:03:10.708Z,30.43
2019-02-28T06:05:43.461Z,28.55
2019-02-28T06:08:12.626Z,30.97
2019-02-28T06:10:42.679Z,30.43
2019-02-28T06:13:15.323Z,29.63
2019-02-28T06:15:44.940Z,36.63
2019-02-28T06:18:15.006Z,33.45
2019-02-28T06:20:45.075Z,34.15
2019-02-28T06:23:15.213Z,31.10
2019-02-28T06:25:45.338Z,34.70
2019-02-28T06:28:15.426Z,33.70
2019-02-28T06:30:45.439Z,31.93
2019-02-28T06:33:15.629Z,28.87
2019-02-28T06:35:45.672Z,31.48
2019-02-28T06:38:16.248Z,29.80
2019-02-28T06:40:47.500Z,29.75
2019-02-28T06:43:18.755Z,27.98
2019-02-28T06:45:49.347Z,29.98
2019-02-28T06:48:20.827Z,26.60
2019-02-28T06:50:51.208Z,27.85
2019-02-28T06:53:21.355Z,30.48
2019-02-28T06:55:51.598Z,31.45
2019-02-28T06:58:22.004Z,32.38
2019-02-28T07:00:52.110Z,29.10
2019-02-28T07:03:22.193Z,31.65
2019-02-28T07:05:52.277Z,31.90
2019-02-28T07:08:24.715Z,30.43
2019-02-28T07:10:54.208Z,31.52
2019-02-28T07:13:24.308Z,28.70
2019-02-28T07:15:55.494Z,30.88
2019-02-28T07:18:26.180Z,29.72
2019-02-28T07:20:56.302Z,29.67
2019-02-28T07:23:26.661Z,31.02
2019-02-28T07:25:58.196Z,29.72
2019-02-28T07:28:28.304Z,29.52
2019-02-28T07:30:58.510Z,31.42
2019-02-28T07:33:28.654Z,30.72
2019-02-28T07:35:58.790Z,32.23
2019-02-28T07:38:29.734Z,28.75
2019-02-28T07:41:00.873Z,28.07
2019-02-28T07:43:30.962Z,36.25
2019-02-28T07:46:01.012Z,29.40
2019-02-28T07:48:31.658Z,28.95
2019-02-28T07:51:01.847Z,50.88
2019-02-28T07:53:31.911Z,33.73
2019-02-28T07:56:03.837Z,28.55
2019-02-28T07:58:33.819Z,31.73
2019-02-28T08:01:04.204Z,28.00
2019-02-28T08:03:34.335Z,32.85
2019-02-28T08:06:05.700Z,32.35
2019-02-28T08:08:36.026Z,36.23
2019-02-28T08:11:06.468Z,33.25
2019-02-28T08:13:37.741Z,30.77
2019-02-28T08:16:08.608Z,28.87
2019-02-28T08:18:38.682Z,32.42
2019-02-28T08:21:09.433Z,28.77
2019-02-28T08:23:39.787Z,32.45
2019-02-28T08:26:10.047Z,28.60
2019-02-28T08:28:41.654Z,29.50
2019-02-28T08:31:11.943Z,27.02
2019-02-28T08:33:42.076Z,29.07
2019-02-28T08:36:12.772Z,28.17
2019-02-28T08:38:43.748Z,30.65
2019-02-28T08:41:14.033Z,28.43
2019-02-28T08:43:44.544Z,29.72
2019-02-28T08:46:16.089Z,31.68
2019-02-28T08:48:46.387Z,31.77
2019-02-28T08:51:16.528Z,33.13
2019-02-28T08:53:50.824Z,27.73
2019-02-28T08:56:18.631Z,30.43
2019-02-28T08:58:48.764Z,30.97
2019-02-28T09:01:18.879Z,37.75
2019-02-28T09:03:50.251Z,35.43
2019-02-28T09:06:20.487Z,32.53
2019-02-28T09:08:50.602Z,30.70
2019-02-28T09:11:21.099Z,31.93
2019-02-28T09:13:51.895Z,33.95
2019-02-28T09:16:21.977Z,35.10
2019-02-28T09:18:52.095Z,38.02
2019-02-28T09:21:22.171Z,37.48
2019-02-28T09:23:52.215Z,32.53
2019-02-28T09:26:22.276Z,34.67
2019-02-28T09:28:52.347Z,39.58
2019-02-28T09:31:22.498Z,35.90
2019-02-28T09:33:55.431Z,36.42
2019-02-28T09:36:24.483Z,38.08
2019-02-28T09:38:56.997Z,41.07
2019-02-28T09:41:26.408Z,34.13
2019-02-28T09:43:59.351Z,34.78
2019-02-28T09:46:28.359Z,36.73
2019-02-28T09:48:59.971Z,39.53
2019-02-28T09:51:32.011Z,36.05
2019-02-28T09:54:02.051Z,42.62
2019-02-28T09:56:32.187Z,39.90
2019-02-28T09:59:03.133Z,42.43
2019-02-28T10:01:35.190Z,40.60
2019-02-28T10:04:05.316Z,41.77
2019-02-28T10:06:35.459Z,42.33
2019-02-28T10:09:08.759Z,41.63
2019-02-28T10:11:40.528Z,39.00
2019-02-28T10:14:12.198Z,43.95
2019-02-28T10:16:42.411Z,39.93
2019-02-28T10:19:13.281Z,42.30
2019-02-28T10:21:44.313Z,47.50
2019-02-28T10:24:15.494Z,42.98
2019-02-28T10:26:48.181Z,40.03
2019-02-28T10:29:17.409Z,39.27
2019-02-28T10:31:47.559Z,41.35
2019-02-28T10:34:17.618Z,46.90
2019-02-28T10:36:48.903Z,44.40
2019-02-28T10:39:20.531Z,43.28
2019-02-28T10:41:50.703Z,52.30
2019-02-28T10:44:20.908Z,45.30
2019-02-28T10:46:53.842Z,50.47
2019-02-28T10:49:24.145Z,44.75
2019-02-28T10:51:54.643Z,44.23
2019-02-28T10:54:24.843Z,42.58
2019-02-28T10:56:54.907Z,44.43
2019-02-28T10:59:25.175Z,45.40
2019-02-28T11:02:18.999Z,46.60
2019-02-28T11:04:47.870Z,43.25
2019-02-28T11:07:18.048Z,45.05
2019-02-28T11:09:49.549Z,42.13
2019-02-28T11:12:21.700Z,45.63
2019-02-28T11:14:51.607Z,43.73
2019-02-28T11:17:21.690Z,45.10
2019-02-28T11:19:52.735Z,44.65
2019-02-28T11:22:23.095Z,44.90
2019-02-28T11:24:53.564Z,46.10
2019-02-28T11:27:23.704Z,43.80
2019-02-28T11:29:53.856Z,45.83
2019-02-28T11:32:26.427Z,42.90
2019-02-28T11:34:55.701Z,44.30
2019-02-28T11:37:25.844Z,44.80
2019-02-28T11:39:56.123Z,45.10
2019-02-28T11:42:28.052Z,45.15
2019-02-28T11:44:58.892Z,43.38
2019-02-28T11:47:29.224Z,43.60
2019-02-28T11:50:00.336Z,47.53
2019-02-28T11:52:32.351Z,45.55
2019-02-28T11:55:02.570Z,42.35
2019-02-28T11:57:34.270Z,42.48
2019-02-28T12:00:05.287Z,42.10
2019-02-28T12:02:36.737Z,40.93
2019-02-28T12:05:07.326Z,45.35
2019-02-28T12:07:37.362Z,43.55
2019-02-28T12:10:07.827Z,40.50
2019-02-28T12:12:38.219Z,41.92
2019-02-28T12:15:10.116Z,42.35
2019-02-28T12:17:40.134Z,44.50
2019-02-28T12:20:12.820Z,40.88
2019-02-28T12:22:43.991Z,42.55
2019-02-28T12:25:17.334Z,42.98
2019-02-28T12:27:47.379Z,41.58
2019-02-28T12:30:22.006Z,45.93
2019-02-28T12:32:52.601Z,42.77
2019-02-28T12:35:22.886Z,41.85
2019-02-28T12:37:53.891Z,41.80
2019-02-28T12:40:26.931Z,45.00
2019-02-28T12:42:57.087Z,42.83
2019-02-28T12:45:33.278Z,43.97
2019-02-28T12:48:03.599Z,44.65
2019-02-28T12:50:33.737Z,44.00
2019-02-28T12:53:04.987Z,40.58
2019-02-28T12:55:35.515Z,39.75
2019-02-28T12:58:06.858Z,40.50
2019-02-28T13:00:37.748Z,40.45
2019-02-28T13:03:09.249Z,38.70
2019-02-28T13:05:40.343Z,42.30
2019-02-28T13:08:10.433Z,39.95
2019-02-28T13:10:42.177Z,36.60
2019-02-28T13:13:12.391Z,38.23
2019-02-28T13:15:45.519Z,38.73
2019-02-28T13:18:14.343Z,38.50
2019-02-28T13:20:44.423Z,45.85
2019-02-28T13:23:16.973Z,37.70
2019-02-28T13:25:46.534Z,39.35
2019-02-28T13:28:17.691Z,36.33
2019-02-28T13:30:50.524Z,37.48
2019-02-28T13:33:20.297Z,37.15
2019-02-28T13:35:50.559Z,36.08
2019-02-28T13:38:20.823Z,35.60
2019-02-28T13:40:50.985Z,36.27
2019-02-28T13:43:22.632Z,36.23
2019-02-28T13:45:55.697Z,37.10
2019-02-28T13:48:29.990Z,34.35
2019-02-28T13:50:59.392Z,33.92
2019-02-28T13:53:30.771Z,29.90
2019-02-28T13:56:01.609Z,33.42
2019-02-28T13:58:31.806Z,29.90
2019-02-28T14:01:01.972Z,31.57
2019-02-28T14:03:45.950Z,33.58
2019-02-28T14:06:19.688Z,32.78
2019-02-28T14:08:47.792Z,34.67
2019-02-28T14:11:18.755Z,31.87
2019-02-28T14:13:50.274Z,35.78
2019-02-28T14:16:23.659Z,31.15
2019-02-28T14:18:54.527Z,33.35
2019-02-28T14:24:06.882Z,35.85
2019-02-28T14:26:42.731Z,32.05
2019-02-28T14:29:10.540Z,33.20
2019-02-28T14:31:40.818Z,32.58
2019-02-28T14:34:10.878Z,31.68
2019-02-28T14:36:41.783Z,29.53
2019-02-28T14:39:13.267Z,31.07
2019-02-28T14:41:43.451Z,33.43
2019-02-28T14:44:13.617Z,31.90
2019-02-28T14:46:44.786Z,31.57
2019-02-28T14:49:14.950Z,29.42
2019-02-28T14:51:45.163Z,31.48
2019-02-28T14:54:15.363Z,30.83
2019-02-28T14:56:47.475Z,29.00
2019-02-28T14:59:17.541Z,32.28
2019-02-28T15:01:49.494Z,31.17
2019-02-28T15:04:19.514Z,28.77
2019-02-28T15:06:50.553Z,32.85
2019-02-28T15:09:20.787Z,31.15
2019-02-28T15:11:50.994Z,31.17
2019-02-28T15:14:21.150Z,32.98
2019-02-28T15:16:51.314Z,33.85
2019-02-28T15:19:24.317Z,37.25
2019-02-28T15:21:53.344Z,37.88
2019-02-28T15:24:23.467Z,35.43
2019-02-28T15:26:53.647Z,37.58
2019-02-28T15:29:26.829Z,39.17
2019-02-28T15:31:56.960Z,42.17
2019-02-28T15:34:27.147Z,40.52
2019-02-28T15:36:59.320Z,38.95
2019-02-28T15:39:29.201Z,41.65
2019-02-28T15:41:59.291Z,43.35
2019-02-28T15:44:30.184Z,43.25
2019-02-28T15:47:00.503Z,43.80
2019-02-28T15:49:30.624Z,50.40
2019-02-28T15:52:01.828Z,47.13
2019-02-28T15:54:32.633Z,50.98
2019-02-28T15:57:02.687Z,56.35
2019-02-28T15:59:32.863Z,52.27
2019-02-28T16:02:03.561Z,54.10
2019-02-28T16:04:34.949Z,50.20
2019-02-28T16:07:05.138Z,51.92
2019-02-28T16:09:35.239Z,48.55
2019-02-28T16:12:07.056Z,45.40
2019-02-28T16:14:38.331Z,46.20
2019-02-28T16:17:08.419Z,45.80
2019-02-28T16:19:38.538Z,41.80
2019-02-28T16:22:08.753Z,49.13
2019-02-28T16:24:39.761Z,41.35
2019-02-28T16:27:10.774Z,43.42
2019-02-28T16:29:40.904Z,43.02
2019-02-28T16:32:14.119Z,43.87
2019-02-28T16:34:43.282Z,41.37
2019-02-28T16:37:13.413Z,43.02
2019-02-28T16:39:43.466Z,41.80
2019-02-28T16:42:13.566Z,43.73
2019-02-28T16:44:43.747Z,44.73
2019-02-28T16:47:13.928Z,43.73
2019-02-28T16:49:45.256Z,44.75
2019-02-28T16:52:15.368Z,45.45
2019-02-28T16:54:45.563Z,46.15
2019-02-28T16:57:15.702Z,48.90
2019-02-28T16:59:45.862Z,48.10
2019-02-28T17:02:16.079Z,45.70
2019-02-28T17:04:48.646Z,46.60
2019-02-28T17:07:18.271Z,48.20
2019-02-28T17:09:48.357Z,56.53
2019-02-28T17:12:36.402Z,51.37
2019-02-28T17:15:13.258Z,49.60
2019-02-28T17:17:50.714Z,52.67
2019-02-28T17:20:20.784Z,52.13
2019-02-28T17:22:50.855Z,54.18
2019-02-28T17:25:21.682Z,53.50
2019-02-28T17:28:01.231Z,60.85
2019-02-28T17:30:50.366Z,57.33
2019-02-28T17:33:20.590Z,53.70
2019-02-28T17:35:50.767Z,52.00
2019-02-28T17:38:20.969Z,46.98
2019-02-28T17:40:51.064Z,45.17
2019-02-28T17:43:24.182Z,45.98
2019-02-28T17:45:53.180Z,36.70
2019-02-28T17:49:19.386Z,37.50
2019-02-28T17:52:13.239Z,36.40
2019-02-28T17:55:12.432Z,38.42
2019-02-28T17:58:21.511Z,35.28
2019-02-28T18:01:31.507Z,33.65
2019-02-28T18:04:34.371Z,35.10
2019-02-28T18:07:40.470Z,33.18
2019-02-28T18:10:52.133Z,29.10
2019-02-28T18:13:28.234Z,27.50
2019-02-28T18:16:43.375Z,31.07
2019-02-28T18:19:22.772Z,26.20
2019-02-28T18:22:31.374Z,20.73
2019-02-28T18:25:41.517Z,22.87
2019-02-28T18:28:46.574Z,22.27
2019-02-28T18:31:19.122Z,22.15
2019-02-28T18:34:00.882Z,18.95
2019-02-28T18:36:32.171Z,19.00
2019-02-28T18:39:02.248Z,14.47
2019-02-28T18:41:34.166Z,15.90
2019-02-28T18:44:05.124Z,19.75
2019-02-28T18:46:35.336Z,15.15
2019-02-28T18:49:05.455Z,13.20
2019-02-28T18:51:36.610Z,14.10
2019-02-28T18:54:06.737Z,28.17
2019-02-28T18:56:36.838Z,15.20
2019-02-28T18:59:06.971Z,12.88
2019-02-28T19:01:37.025Z,14.87
2019-02-28T19:04:07.236Z,15.40
2019-02-28T19:06:37.279Z,14.18
2019-02-28T19:09:18.779Z,15.23
2019-02-28T19:11:48.948Z,15.13
2019-02-28T19:14:19.271Z,15.70
2019-02-28T19:16:49.526Z,14.75
2019-02-28T19:19:19.679Z,15.30
2019-02-28T19:21:49.791Z,15.97
2019-02-28T19:24:19.933Z,15.90
2019-02-28T19:26:50.101Z,14.00
2019-02-28T19:29:20.155Z,17.67
2019-02-28T19:31:50.183Z,17.12
2019-02-28T19:34:21.487Z,17.42
2019-02-28T19:36:51.595Z,17.80
2019-02-28T19:39:21.656Z,19.65
2019-02-28T19:41:53.198Z,17.20
2019-02-28T19:44:23.243Z,17.07
2019-02-28T19:46:53.374Z,21.42
2019-02-28T19:49:23.471Z,17.02
2019-02-28T19:51:53.535Z,19.12
2019-02-28T19:54:23.683Z,18.23
2019-02-28T19:56:53.735Z,19.07
2019-02-28T19:59:23.885Z,18.37
2019-02-28T20:01:54.004Z,20.17
2019-02-28T20:04:24.151Z,20.50
2019-02-28T20:06:54.199Z,20.00
2019-02-28T20:09:25.496Z,21.50
2019-02-28T20:11:55.741Z,23.65
2019-02-28T20:14:26.671Z,20.77
2019-02-28T20:16:56.696Z,23.38
2019-02-28T20:19:26.760Z,22.73
2019-02-28T20:21:56.820Z,22.15
2019-02-28T20:24:27.037Z,23.15
2019-02-28T20:26:57.145Z,21.62
2019-02-28T20:29:27.277Z,19.80
2019-02-28T20:31:57.394Z,22.77
2019-02-28T20:34:29.157Z,21.70
2019-02-28T20:36:59.410Z,20.62
2019-02-28T20:39:48.643Z,20.37
2019-02-28T20:42:19.689Z,26.70
2019-02-28T20:44:50.043Z,21.70
2019-02-28T20:47:20.270Z,23.22
2019-02-28T20:49:50.466Z,20.62
2019-02-28T20:52:20.582Z,23.15
2019-02-28T20:54:50.791Z,23.98
2019-02-28T20:57:20.916Z,21.23
2019-02-28T20:59:51.047Z,26.23
2019-02-28T21:02:21.156Z,26.53
2019-02-28T21:04:51.256Z,25.40
2019-02-28T21:07:21.405Z,25.75
2019-02-28T21:09:51.486Z,24.77
2019-02-28T21:12:21.964Z,22.05
2019-02-28T21:14:52.087Z,25.00
2019-02-28T21:17:29.223Z,25.72
2019-02-28T21:19:54.132Z,25.00
2019-02-28T21:22:24.198Z,24.67
2019-02-28T21:24:54.411Z,24.25
2019-02-28T21:27:24.472Z,25.40
2019-02-28T21:29:54.605Z,24.00
2019-02-28T21:32:24.832Z,27.00
2019-02-28T21:34:55.016Z,26.90
2019-02-28T21:37:26.341Z,29.75
2019-02-28T21:39:56.630Z,27.98
2019-02-28T21:42:26.958Z,25.02
2019-02-28T21:44:57.099Z,29.18
2019-02-28T21:47:27.276Z,27.30
2019-02-28T21:49:57.364Z,29.45
2019-02-28T21:52:27.516Z,27.27
2019-02-28T21:54:57.647Z,29.57
2019-02-28T21:57:27.757Z,26.55
2019-02-28T21:59:57.811Z,28.63
2019-02-28T22:02:27.962Z,26.37
2019-02-28T22:04:58.110Z,28.60
2019-02-28T22:07:28.224Z,28.40
2019-02-28T22:09:58.579Z,27.00
2019-02-28T22:12:28.751Z,27.70
2019-02-28T22:14:58.824Z,26.02
2019-02-28T22:17:28.975Z,28.25
2019-02-28T22:19:59.143Z,25.12
2019-02-28T22:22:29.223Z,31.13
2019-02-28T22:24:59.380Z,24.05
2019-02-28T22:27:29.558Z,27.90
2019-02-28T22:30:01.531Z,25.08
2019-02-28T22:32:42.014Z,27.70
2019-02-28T22:35:20.792Z,26.10
2019-02-28T22:37:51.028Z,23.77
2019-02-28T22:40:21.345Z,27.00
2019-02-28T22:42:51.411Z,24.63
2019-02-28T22:45:21.483Z,24.95
2019-02-28T22:47:51.635Z,22.80
2019-02-28T22:50:21.793Z,27.23
2019-02-28T22:52:54.044Z,26.82
2019-02-28T22:55:24.156Z,26.30
2019-02-28T22:57:54.345Z,22.52
2019-02-28T23:00:38.262Z,26.05
2019-02-28T23:03:10.079Z,21.82
2019-02-28T23:05:41.215Z,23.27
2019-02-28T23:08:11.364Z,23.35
2019-02-28T23:10:41.436Z,26.70
2019-02-28T23:13:11.511Z,27.42
2019-02-28T23:15:41.641Z,23.50
2019-02-28T23:18:11.715Z,22.00
2019-02-28T23:20:41.876Z,21.25
2019-02-28T23:23:12.002Z,24.05
2019-02-28T23:25:42.155Z,24.45
2019-02-28T23:28:14.623Z,25.45
2019-02-28T23:31:31.919Z,25.17
2019-02-28T23:34:05.371Z,23.47
2019-02-28T23:36:35.499Z,22.37
2019-02-28T23:39:07.895Z,20.95
2019-02-28T23:41:39.626Z,22.10
2019-02-28T23:44:09.745Z,24.37
2019-02-28T23:46:39.881Z,20.27
2019-02-28T23:49:10.052Z,18.40
2019-02-28T23:51:40.086Z,19.10
2019-02-28T23:54:10.274Z,19.75
2019-02-28T23:56:40.404Z,17.57
2019-02-28T23:59:10.611Z,19.47
